createdAt,value
2023-05-09T00:00:32.696Z,10.86
2023-05-09T00:02:59.062Z,10.79
2023-05-09T00:05:25.600Z,10.80
2023-05-09T00:07:52.128Z,10.75
2023-05-09T00:10:18.493Z,10.74
2023-05-09T00:12:44.904Z,10.69
2023-05-09T00:15:11.559Z,10.69
2023-05-09T00:17:38.502Z,10.60
2023-05-09T00:20:10.539Z,10.65
2023-05-09T00:22:36.887Z,10.64
2023-05-09T00:25:03.849Z,10.62
2023-05-09T00:27:30.624Z,10.54
2023-05-09T00:29:57.047Z,10.52
2023-05-09T00:32:24.961Z,10.47
2023-05-09T00:34:51.932Z,10.46
2023-05-09T00:37:19.147Z,10.39
2023-05-09T00:39:46.047Z,10.39
2023-05-09T00:42:12.342Z,10.39
2023-05-09T00:44:38.617Z,10.35
2023-05-09T00:47:05.545Z,10.34
2023-05-09T00:49:32.305Z,10.23
2023-05-09T00:51:58.836Z,10.17
2023-05-09T00:54:26.327Z,10.16
2023-05-09T00:56:52.600Z,10.08
2023-05-09T00:59:18.975Z,10.07
2023-05-09T01:04:20.404Z,9.96
2023-05-09T01:07:05.997Z,9.95
2023-05-09T01:09:52.566Z,9.89
2023-05-09T01:12:34.108Z,9.78
2023-05-09T01:15:32.253Z,9.79
2023-05-09T01:18:05.993Z,9.71
2023-05-09T01:20:38.223Z,9.73
2023-05-09T01:23:15.792Z,9.70
2023-05-09T01:26:14.125Z,9.68
2023-05-09T01:28:51.676Z,9.68
2023-05-09T01:31:19.923Z,9.64
2023-05-09T01:33:48.115Z,9.56
2023-05-09T01:36:17.936Z,9.53
2023-05-09T01:38:44.582Z,9.49
2023-05-09T01:41:12.818Z,9.49
2023-05-09T01:43:41.644Z,9.48
2023-05-09T01:46:08.994Z,9.48
2023-05-09T01:48:37.692Z,9.40
2023-05-09T01:51:05.412Z,9.41
2023-05-09T01:53:34.278Z,9.36
2023-05-09T01:56:02.986Z,9.38
2023-05-09T01:58:32.248Z,9.33
2023-05-09T02:01:00.198Z,9.22
2023-05-09T02:03:27.489Z,9.18
2023-05-09T02:05:55.490Z,9.15
2023-05-09T02:08:22.852Z,9.09
2023-05-09T02:10:49.782Z,9.08
2023-05-09T02:13:16.221Z,9.00
2023-05-09T02:15:44.059Z,9.01
2023-05-09T02:18:10.819Z,8.89
2023-05-09T02:20:37.132Z,8.89
2023-05-09T02:23:03.823Z,8.93
2023-05-09T02:25:31.210Z,8.90
2023-05-09T02:27:59.347Z,8.79
2023-05-09T02:30:30.938Z,8.74
2023-05-09T02:33:01.541Z,8.79
2023-05-09T02:35:28.869Z,8.69
2023-05-09T02:37:57.047Z,8.67
2023-05-09T02:40:26.193Z,8.62
2023-05-09T02:42:52.501Z,8.65
2023-05-09T02:45:18.874Z,8.62
2023-05-09T02:47:45.233Z,8.62
2023-05-09T02:50:11.870Z,8.62
2023-05-09T02:52:38.212Z,8.52
2023-05-09T02:55:05.123Z,8.47
2023-05-09T02:57:31.411Z,8.49
2023-05-09T02:59:57.736Z,8.51
2023-05-09T03:02:24.228Z,8.44
2023-05-09T03:04:50.578Z,8.44
2023-05-09T03:07:16.934Z,8.39
2023-05-09T03:09:43.263Z,8.37
2023-05-09T03:12:09.569Z,8.36
2023-05-09T03:14:36.357Z,8.31
2023-05-09T03:17:02.720Z,8.30
2023-05-09T03:19:29.169Z,8.21
2023-05-09T03:21:55.519Z,8.27
2023-05-09T03:24:21.841Z,8.21
2023-05-09T03:26:48.172Z,8.18
2023-05-09T03:29:14.532Z,8.13
2023-05-09T03:31:40.914Z,8.11
2023-05-09T03:34:07.310Z,8.08
2023-05-09T03:39:17.646Z,8.17
2023-05-09T03:41:44.260Z,8.14
2023-05-09T03:44:10.668Z,8.09
2023-05-09T03:46:37.086Z,8.08
2023-05-09T03:49:04.348Z,8.03
2023-05-09T03:51:31.036Z,7.97
2023-05-09T03:53:57.432Z,7.97
2023-05-09T03:56:23.824Z,7.98
2023-05-09T03:58:50.215Z,7.94
2023-05-09T04:01:16.966Z,7.88
2023-05-09T04:03:43.606Z,7.95
2023-05-09T04:06:10.092Z,7.98
2023-05-09T04:08:36.580Z,8.03
2023-05-09T04:11:03.098Z,8.06
2023-05-09T04:13:30.857Z,7.94
2023-05-09T04:15:57.269Z,7.95
2023-05-09T04:18:23.618Z,7.96
2023-05-09T04:20:49.960Z,7.98
2023-05-09T04:23:16.275Z,8.02
2023-05-09T04:25:42.840Z,8.08
2023-05-09T04:28:09.163Z,8.09
2023-05-09T04:30:35.459Z,8.01
2023-05-09T04:33:01.934Z,8.06
2023-05-09T04:35:28.353Z,8.08
2023-05-09T04:37:54.637Z,8.01
2023-05-09T04:40:20.923Z,8.00
2023-05-09T04:42:47.201Z,8.11
2023-05-09T04:45:13.642Z,8.17
2023-05-09T04:47:40.406Z,8.26
2023-05-09T04:50:07.866Z,8.39
2023-05-09T04:52:34.123Z,8.62
2023-05-09T04:55:00.846Z,8.74
2023-05-09T04:57:27.445Z,8.75
2023-05-09T04:59:53.724Z,8.81
2023-05-09T05:02:21.072Z,9.02
2023-05-09T05:04:47.519Z,9.11
2023-05-09T05:07:13.965Z,9.10
2023-05-09T05:09:40.263Z,9.23
2023-05-09T05:12:09.183Z,9.37
2023-05-09T05:14:36.072Z,9.38
2023-05-09T05:17:02.374Z,9.57
2023-05-09T05:19:28.657Z,9.63
2023-05-09T05:21:54.912Z,9.82
2023-05-09T05:24:21.272Z,9.90
2023-05-09T05:26:47.640Z,9.80
2023-05-09T05:29:13.921Z,9.85
2023-05-09T05:31:40.252Z,9.73
2023-05-09T05:34:06.591Z,9.88
2023-05-09T05:36:33.238Z,9.84
2023-05-09T05:38:59.587Z,9.92
2023-05-09T05:41:26.159Z,10.02
2023-05-09T05:43:54.325Z,10.24
2023-05-09T05:46:21.102Z,10.41
2023-05-09T05:48:47.460Z,10.39
2023-05-09T05:51:13.800Z,10.37
2023-05-09T05:53:40.805Z,10.39
2023-05-09T05:56:07.356Z,10.32
2023-05-09T05:58:33.645Z,10.56
2023-05-09T06:00:59.934Z,10.73
2023-05-09T06:03:26.471Z,10.82
2023-05-09T06:05:52.881Z,10.76
2023-05-09T06:08:19.160Z,11.08
2023-05-09T06:10:45.767Z,11.21
2023-05-09T06:13:12.213Z,11.13
2023-05-09T06:15:38.509Z,11.04
2023-05-09T06:18:04.924Z,10.85
2023-05-09T06:20:31.309Z,10.95
2023-05-09T06:22:57.582Z,10.97
2023-05-09T06:25:23.865Z,11.08
2023-05-09T06:27:50.186Z,11.43
2023-05-09T06:30:25.691Z,11.61
2023-05-09T06:32:53.442Z,11.53
2023-05-09T06:35:19.889Z,11.68
2023-05-09T06:37:48.372Z,12.04
2023-05-09T06:40:15.361Z,12.06
2023-05-09T06:42:41.681Z,12.34
2023-05-09T06:45:08.542Z,12.43
2023-05-09T06:47:35.228Z,12.64
2023-05-09T06:50:01.613Z,12.31
2023-05-09T06:52:27.950Z,12.54
2023-05-09T06:54:54.310Z,12.47
2023-05-09T06:57:20.838Z,12.61
2023-05-09T06:59:47.249Z,12.94
2023-05-09T07:02:13.502Z,13.08
2023-05-09T07:04:39.870Z,13.34
2023-05-09T07:07:06.383Z,13.05
2023-05-09T07:09:33.806Z,12.78
2023-05-09T07:12:01.073Z,13.09
2023-05-09T07:14:27.516Z,13.23
2023-05-09T07:16:56.487Z,13.54
2023-05-09T07:19:26.692Z,13.70
2023-05-09T07:21:52.945Z,13.57
2023-05-09T07:24:19.338Z,13.76
2023-05-09T07:26:45.713Z,13.94
2023-05-09T07:29:12.052Z,13.86
2023-05-09T07:31:38.389Z,13.82
2023-05-09T07:34:04.686Z,13.83
2023-05-09T07:36:32.285Z,14.07
2023-05-09T07:38:59.464Z,14.26
2023-05-09T07:41:26.816Z,14.25
2023-05-09T07:43:53.085Z,14.37
2023-05-09T07:46:19.450Z,14.62
2023-05-09T07:48:45.789Z,14.81
2023-05-09T07:51:12.159Z,14.78
2023-05-09T07:53:38.448Z,14.96
2023-05-09T07:56:06.632Z,14.92
2023-05-09T07:58:33.331Z,15.11
2023-05-09T08:00:59.643Z,15.33
2023-05-09T08:03:26.156Z,15.09
2023-05-09T08:05:56.352Z,15.14
2023-05-09T08:08:23.005Z,15.16
2023-05-09T08:10:49.567Z,15.29
2023-05-09T08:13:15.966Z,15.27
2023-05-09T08:15:42.346Z,15.59
2023-05-09T08:18:08.768Z,15.80
2023-05-09T08:20:36.075Z,15.77
2023-05-09T08:23:02.392Z,15.62
2023-05-09T08:25:29.697Z,15.64
2023-05-09T08:27:56.050Z,15.76
2023-05-09T08:30:22.621Z,15.79
2023-05-09T08:32:48.952Z,16.18
2023-05-09T08:35:15.672Z,16.09
2023-05-09T08:37:42.188Z,15.87
2023-05-09T08:40:09.882Z,16.22
2023-05-09T08:42:37.673Z,16.22
2023-05-09T08:45:09.769Z,16.40
2023-05-09T08:47:37.551Z,16.48
2023-05-09T08:50:05.650Z,16.22
2023-05-09T08:52:35.695Z,16.45
2023-05-09T08:55:06.107Z,16.45
2023-05-09T08:57:35.158Z,16.64
2023-05-09T09:00:02.219Z,16.90
2023-05-09T09:02:29.603Z,16.72
2023-05-09T09:04:56.365Z,16.47
2023-05-09T09:07:23.685Z,16.70
2023-05-09T09:09:50.338Z,16.89
2023-05-09T09:12:17.479Z,16.89
2023-05-09T09:14:50.134Z,16.91
2023-05-09T09:17:20.523Z,16.96
2023-05-09T09:19:49.942Z,17.24
2023-05-09T09:22:19.660Z,17.38
2023-05-09T09:24:46.447Z,17.23
2023-05-09T09:27:12.734Z,17.40
2023-05-09T09:29:39.129Z,17.68
2023-05-09T09:32:07.223Z,17.64
2023-05-09T09:34:33.774Z,17.45
2023-05-09T09:37:00.152Z,17.84
2023-05-09T09:39:26.450Z,18.07
2023-05-09T09:41:52.833Z,18.13
2023-05-09T09:44:21.622Z,17.90
2023-05-09T09:46:50.569Z,18.13
2023-05-09T09:49:25.691Z,18.27
2023-05-09T09:51:56.187Z,18.40
2023-05-09T09:54:22.952Z,18.56
2023-05-09T09:56:53.125Z,18.84
2023-05-09T09:59:21.394Z,18.88
2023-05-09T10:01:56.057Z,18.63
2023-05-09T10:04:23.216Z,18.52
2023-05-09T10:06:53.952Z,18.63
2023-05-09T10:09:25.288Z,18.56
2023-05-09T10:11:53.418Z,18.79
2023-05-09T10:14:22.229Z,19.02
2023-05-09T10:16:50.339Z,18.85
2023-05-09T10:19:21.746Z,19.08
2023-05-09T10:21:53.267Z,19.07
2023-05-09T10:24:28.234Z,18.92
2023-05-09T10:27:03.950Z,19.01
2023-05-09T10:29:38.097Z,19.26
2023-05-09T10:32:17.556Z,19.26
2023-05-09T10:34:48.131Z,19.17
2023-05-09T10:37:15.655Z,19.12
2023-05-09T10:39:42.678Z,19.36
2023-05-09T10:42:09.555Z,19.63
2023-05-09T10:44:36.425Z,19.34
2023-05-09T10:47:03.298Z,19.27
2023-05-09T10:49:30.414Z,19.30
2023-05-09T10:51:56.702Z,19.58
2023-05-09T10:54:30.669Z,19.31
2023-05-09T10:56:57.874Z,19.20
2023-05-09T10:59:57.738Z,19.38
2023-05-09T11:02:30.922Z,19.27
2023-05-09T11:05:14.570Z,19.53
2023-05-09T11:07:41.170Z,19.72
2023-05-09T11:10:16.092Z,19.70
2023-05-09T11:12:57.774Z,19.70
2023-05-09T11:15:26.458Z,19.72
2023-05-09T11:18:10.538Z,19.86
2023-05-09T11:20:44.044Z,19.95
2023-05-09T11:23:11.805Z,20.04
2023-05-09T11:25:41.989Z,20.01
2023-05-09T11:28:08.297Z,19.43
2023-05-09T11:30:43.261Z,19.83
2023-05-09T11:33:23.985Z,19.78
2023-05-09T11:36:27.874Z,19.87
2023-05-09T11:39:08.448Z,20.12
2023-05-09T11:41:43.503Z,19.94
2023-05-09T11:44:18.341Z,19.66
2023-05-09T11:46:46.084Z,19.85
2023-05-09T11:49:12.517Z,19.80
2023-05-09T11:51:39.610Z,19.68
2023-05-09T11:54:10.437Z,19.67
2023-05-09T11:56:39.854Z,19.76
2023-05-09T11:59:07.725Z,19.77
2023-05-09T12:01:35.911Z,19.78
2023-05-09T12:04:02.693Z,20.02
2023-05-09T12:06:29.882Z,20.02
2023-05-09T12:08:59.059Z,20.04
2023-05-09T12:11:25.727Z,20.23
2023-05-09T12:13:52.849Z,20.21
2023-05-09T12:16:20.373Z,20.41
2023-05-09T12:18:49.222Z,20.51
2023-05-09T12:21:16.397Z,20.04
2023-05-09T12:23:43.403Z,19.91
2023-05-09T12:26:09.955Z,20.00
2023-05-09T12:28:36.596Z,19.80
2023-05-09T12:31:03.998Z,19.83
2023-05-09T12:33:30.961Z,20.18
2023-05-09T12:36:09.414Z,20.13
2023-05-09T12:38:35.749Z,19.98
2023-05-09T12:41:04.275Z,20.00
2023-05-09T12:43:32.484Z,19.99
2023-05-09T12:45:59.295Z,19.79
2023-05-09T12:48:25.708Z,19.95
2023-05-09T12:50:52.172Z,19.94
2023-05-09T12:53:26.164Z,19.88
2023-05-09T12:56:05.801Z,19.86
2023-05-09T12:58:33.208Z,20.12
2023-05-09T13:01:03.196Z,19.88
2023-05-09T13:03:37.504Z,20.22
2023-05-09T13:06:05.674Z,20.37
2023-05-09T13:08:32.531Z,20.18
2023-05-09T13:11:14.445Z,20.47
2023-05-09T13:13:42.399Z,20.53
2023-05-09T13:16:10.977Z,20.52
2023-05-09T13:18:38.423Z,20.34
2023-05-09T13:21:04.760Z,20.22
2023-05-09T13:23:31.063Z,20.38
2023-05-09T13:25:57.337Z,20.35
2023-05-09T13:28:23.597Z,20.39
2023-05-09T13:30:49.896Z,20.21
2023-05-09T13:33:25.284Z,20.38
2023-05-09T13:35:52.876Z,20.42
2023-05-09T13:38:19.156Z,20.52
2023-05-09T13:40:45.619Z,20.22
2023-05-09T13:43:11.927Z,20.14
2023-05-09T13:45:38.255Z,20.35
2023-05-09T13:48:05.114Z,20.64
2023-05-09T13:50:31.427Z,20.64
2023-05-09T13:52:58.491Z,20.26
2023-05-09T13:55:26.316Z,20.27
2023-05-09T13:57:52.595Z,20.21
2023-05-09T14:00:21.239Z,20.19
2023-05-09T14:02:48.169Z,20.33
2023-05-09T14:05:14.596Z,20.42
2023-05-09T14:07:40.911Z,20.12
2023-05-09T14:10:11.572Z,20.18
2023-05-09T14:12:39.761Z,20.26
2023-05-09T14:15:07.755Z,20.46
2023-05-09T14:17:34.124Z,20.41
2023-05-09T14:20:00.850Z,20.39
2023-05-09T14:22:28.152Z,20.04
2023-05-09T14:24:56.328Z,20.19
2023-05-09T14:27:22.864Z,19.95
2023-05-09T14:29:49.352Z,20.01
2023-05-09T14:32:15.992Z,20.27
2023-05-09T14:34:42.291Z,20.12
2023-05-09T14:37:13.685Z,20.14
2023-05-09T14:39:45.050Z,19.78
2023-05-09T14:42:11.574Z,20.05
2023-05-09T14:44:38.688Z,19.94
2023-05-09T14:47:05.769Z,19.96
2023-05-09T14:49:32.474Z,20.13
2023-05-09T14:51:58.920Z,20.10
2023-05-09T14:54:25.748Z,20.25
2023-05-09T14:56:52.120Z,20.51
2023-05-09T14:59:18.520Z,20.58
2023-05-09T15:01:46.152Z,20.36
2023-05-09T15:04:12.629Z,20.62
2023-05-09T15:06:39.570Z,20.16
2023-05-09T15:09:06.053Z,20.23
2023-05-09T15:11:46.264Z,20.09
2023-05-09T15:14:14.659Z,20.22
2023-05-09T15:16:41.241Z,20.50
2023-05-09T15:19:08.256Z,20.41
2023-05-09T15:21:34.867Z,20.42
2023-05-09T15:24:01.928Z,20.49
2023-05-09T15:26:28.371Z,20.52
2023-05-09T15:28:54.642Z,20.25
2023-05-09T15:31:21.663Z,20.28
2023-05-09T15:33:48.358Z,20.13
2023-05-09T15:36:14.699Z,20.16
2023-05-09T15:38:41.003Z,20.25
2023-05-09T15:41:16.605Z,20.23
2023-05-09T15:43:42.881Z,20.03
2023-05-09T15:46:09.298Z,20.00
2023-05-09T15:48:36.132Z,20.03
2023-05-09T15:51:03.890Z,20.00
2023-05-09T15:53:30.217Z,19.81
2023-05-09T15:55:56.982Z,19.68
2023-05-09T15:58:26.140Z,19.69
2023-05-09T16:00:52.480Z,19.81
2023-05-09T16:03:19.075Z,19.75
2023-05-09T16:05:45.596Z,19.82
2023-05-09T16:08:12.379Z,19.52
2023-05-09T16:10:38.728Z,19.52
2023-05-09T16:13:05.328Z,19.44
2023-05-09T16:15:32.116Z,19.35
2023-05-09T16:17:58.411Z,19.33
2023-05-09T16:20:24.696Z,19.38
2023-05-09T16:22:50.998Z,19.42
2023-05-09T16:25:17.524Z,19.45
2023-05-09T16:27:44.206Z,19.49
2023-05-09T16:30:10.953Z,19.35
2023-05-09T16:32:37.906Z,19.32
2023-05-09T16:35:04.623Z,19.39
2023-05-09T16:37:31.679Z,19.38
2023-05-09T16:40:01.610Z,19.26
2023-05-09T16:42:28.362Z,19.22
2023-05-09T16:44:55.618Z,19.28
2023-05-09T16:47:22.072Z,19.30
2023-05-09T16:49:48.459Z,19.23
2023-05-09T16:52:15.214Z,19.13
2023-05-09T16:54:41.499Z,19.34
2023-05-09T16:57:08.315Z,19.40
2023-05-09T16:59:34.636Z,19.39
2023-05-09T17:02:01.511Z,19.30
2023-05-09T17:04:27.935Z,19.27
2023-05-09T17:06:54.311Z,19.27
2023-05-09T17:09:20.624Z,19.17
2023-05-09T17:11:48.099Z,18.99
2023-05-09T17:14:14.559Z,18.90
2023-05-09T17:16:41.011Z,18.79
2023-05-09T17:19:07.317Z,18.73
2023-05-09T17:21:34.110Z,18.71
2023-05-09T17:24:01.899Z,18.60
2023-05-09T17:26:29.432Z,18.45
2023-05-09T17:28:55.838Z,18.40
2023-05-09T17:31:22.570Z,18.34
2023-05-09T17:33:48.988Z,18.32
2023-05-09T17:36:15.311Z,18.33
2023-05-09T17:38:41.570Z,18.24
2023-05-09T17:41:07.838Z,18.20
2023-05-09T17:43:34.184Z,18.16
2023-05-09T17:46:00.597Z,18.12
2023-05-09T17:48:26.984Z,18.10
2023-05-09T17:50:53.368Z,17.99
2023-05-09T17:53:19.680Z,18.07
2023-05-09T17:55:46.093Z,18.01
2023-05-09T17:58:13.848Z,17.92
2023-05-09T18:00:40.314Z,17.83
2023-05-09T18:03:06.714Z,17.76
2023-05-09T18:05:33.027Z,17.81
2023-05-09T18:08:00.954Z,17.68
2023-05-09T18:10:28.751Z,17.64
2023-05-09T18:12:55.136Z,17.58
2023-05-09T18:15:21.549Z,17.54
2023-05-09T18:17:49.228Z,17.45
2023-05-09T18:20:15.722Z,17.42
2023-05-09T18:22:42.199Z,17.34
2023-05-09T18:25:08.857Z,17.25
2023-05-09T18:27:35.181Z,17.20
2023-05-09T18:30:01.515Z,17.11
2023-05-09T18:32:29.691Z,17.07
2023-05-09T18:34:56.139Z,17.07
2023-05-09T18:37:22.727Z,17.04
2023-05-09T18:39:49.098Z,16.95
2023-05-09T18:42:16.515Z,16.85
2023-05-09T18:44:43.067Z,16.75
2023-05-09T18:47:09.536Z,16.76
2023-05-09T18:49:36.066Z,16.72
2023-05-09T18:52:02.465Z,16.68
2023-05-09T18:54:28.791Z,16.57
2023-05-09T18:56:55.094Z,16.54
2023-05-09T18:59:22.594Z,16.53
2023-05-09T19:01:48.887Z,16.47
2023-05-09T19:04:17.215Z,16.41
2023-05-09T19:06:44.005Z,16.43
2023-05-09T19:09:11.357Z,16.35
2023-05-09T19:11:37.787Z,16.20
2023-05-09T19:14:04.833Z,16.14
2023-05-09T19:16:31.172Z,16.11
2023-05-09T19:18:57.996Z,16.15
2023-05-09T19:21:25.314Z,16.04
2023-05-09T19:23:51.603Z,15.99
2023-05-09T19:26:19.135Z,16.00
2023-05-09T19:28:46.654Z,15.97
2023-05-09T19:31:14.218Z,15.85
2023-05-09T19:33:41.461Z,15.85
2023-05-09T19:36:07.784Z,15.84
2023-05-09T19:38:34.954Z,15.74
2023-05-09T19:41:01.342Z,15.69
2023-05-09T19:43:27.678Z,15.68
2023-05-09T19:45:54.036Z,15.64
2023-05-09T19:48:20.310Z,15.68
2023-05-09T19:50:46.737Z,15.63
2023-05-09T19:53:13.159Z,15.57
2023-05-09T19:55:39.609Z,15.54
2023-05-09T19:58:06.012Z,15.57
2023-05-09T20:00:32.323Z,15.55
2023-05-09T20:02:58.696Z,15.55
2023-05-09T20:05:25.283Z,15.49
2023-05-09T20:07:51.783Z,15.48
2023-05-09T20:10:18.378Z,15.42
2023-05-09T20:12:45.245Z,15.39
2023-05-09T20:15:12.120Z,15.35
2023-05-09T20:17:38.432Z,15.37
2023-05-09T20:20:05.296Z,15.36
2023-05-09T20:22:31.657Z,15.30
2023-05-09T20:24:57.937Z,15.23
2023-05-09T20:27:24.275Z,15.19
2023-05-09T20:29:50.660Z,15.16
2023-05-09T20:32:16.930Z,15.14
2023-05-09T20:34:43.213Z,15.15
2023-05-09T20:37:09.485Z,15.12
2023-05-09T20:39:35.812Z,15.14
2023-05-09T20:42:02.295Z,15.10
2023-05-09T20:44:29.072Z,15.01
2023-05-09T20:46:55.420Z,14.99
2023-05-09T20:49:21.744Z,14.97
2023-05-09T20:51:48.011Z,14.95
2023-05-09T20:54:14.264Z,14.81
2023-05-09T20:56:40.655Z,14.85
2023-05-09T20:59:06.960Z,14.79
2023-05-09T21:01:36.499Z,14.75
2023-05-09T21:04:05.414Z,14.71
2023-05-09T21:06:32.883Z,14.62
2023-05-09T21:08:59.158Z,14.57
2023-05-09T21:11:25.469Z,14.53
2023-05-09T21:13:51.709Z,14.56
2023-05-09T21:16:18.061Z,14.64
2023-05-09T21:18:44.465Z,14.58
2023-05-09T21:21:11.286Z,14.48
2023-05-09T21:23:37.640Z,14.44
2023-05-09T21:26:04.919Z,14.38
2023-05-09T21:28:31.336Z,14.31
2023-05-09T21:30:59.805Z,14.32
2023-05-09T21:33:26.086Z,14.19
2023-05-09T21:35:52.447Z,14.24
2023-05-09T21:38:18.747Z,14.16
2023-05-09T21:40:44.995Z,14.04
2023-05-09T21:43:11.383Z,14.06
2023-05-09T21:45:37.672Z,14.02
2023-05-09T21:48:04.132Z,14.03
2023-05-09T21:50:30.429Z,13.95
2023-05-09T21:52:56.922Z,13.94
2023-05-09T21:55:23.408Z,13.91
2023-05-09T21:57:49.669Z,13.94
2023-05-09T22:00:17.031Z,13.86
2023-05-09T22:02:43.790Z,13.84
2023-05-09T22:05:11.440Z,13.83
2023-05-09T22:07:38.423Z,13.76
2023-05-09T22:10:05.455Z,13.74
2023-05-09T22:12:31.719Z,13.73
2023-05-09T22:14:58.010Z,13.70
2023-05-09T22:17:24.469Z,13.70
2023-05-09T22:19:50.875Z,13.66
2023-05-09T22:22:17.242Z,13.67
2023-05-09T22:24:43.649Z,13.66
2023-05-09T22:27:10.465Z,13.59
2023-05-09T22:29:36.944Z,13.61
2023-05-09T22:32:04.448Z,13.59
2023-05-09T22:34:30.930Z,13.53
2023-05-09T22:36:57.230Z,13.55
2023-05-09T22:39:23.514Z,13.58
2023-05-09T22:41:49.962Z,13.61
2023-05-09T22:44:16.447Z,13.53
2023-05-09T22:46:42.755Z,13.51
2023-05-09T22:49:09.022Z,13.48
2023-05-09T22:51:35.315Z,13.44
2023-05-09T22:54:01.602Z,13.44
2023-05-09T22:56:27.856Z,13.44
2023-05-09T22:58:54.159Z,13.43
2023-05-09T23:01:20.585Z,13.44
2023-05-09T23:03:46.990Z,13.43
2023-05-09T23:06:13.275Z,13.42
2023-05-09T23:08:39.562Z,13.44
2023-05-09T23:11:05.905Z,13.41
2023-05-09T23:13:32.391Z,13.43
2023-05-09T23:15:58.677Z,13.37
2023-05-09T23:18:25.565Z,13.37
2023-05-09T23:20:51.895Z,13.34
2023-05-09T23:23:18.183Z,13.36
2023-05-09T23:25:44.529Z,13.34
2023-05-09T23:28:10.897Z,13.33
2023-05-09T23:30:37.201Z,13.33
2023-05-09T23:33:03.535Z,13.36
2023-05-09T23:35:29.955Z,13.33
2023-05-09T23:37:56.301Z,13.26
2023-05-09T23:40:22.670Z,13.26
2023-05-09T23:42:49.055Z,13.23
2023-05-09T23:45:15.744Z,13.23
2023-05-09T23:47:42.045Z,13.21
2023-05-09T23:50:08.607Z,13.15
2023-05-09T23:52:34.909Z,13.11
2023-05-09T23:55:01.202Z,13.09
2023-05-09T23:57:27.438Z,13.12
2023-05-09T23:59:53.712Z,13.12
